createdAt,value
2022-11-05T00:01:53.833Z,101152.28
2022-11-05T00:04:39.127Z,101151.25
2022-11-05T00:07:37.317Z,101150.31
2022-11-05T00:10:15.013Z,101153.47
2022-11-05T00:13:00.607Z,101166.78
2022-11-05T00:15:45.837Z,101162.88
2022-11-05T00:18:13.511Z,101165.72
2022-11-05T00:20:40.082Z,101170.34
2022-11-05T00:23:25.224Z,101178.22
2022-11-05T00:26:03.124Z,101181.78
2022-11-05T00:28:31.305Z,101178.78
2022-11-05T00:31:11.294Z,101179.06
2022-11-05T00:33:41.925Z,101176.75
2022-11-05T00:36:10.031Z,101184.78
2022-11-05T00:38:36.918Z,101175.66
2022-11-05T00:41:03.527Z,101182.88
2022-11-05T00:43:48.999Z,101187.38
2022-11-05T00:46:15.558Z,101200.53
2022-11-05T00:49:01.823Z,101207.47
2022-11-05T00:51:28.410Z,101205.56
2022-11-05T00:53:55.076Z,101209.53
2022-11-05T00:56:21.857Z,101211.69
2022-11-05T00:58:49.016Z,101211.28
2022-11-05T01:01:15.845Z,101207.63
2022-11-05T01:03:45.124Z,101197.97
2022-11-05T01:06:16.797Z,101192.91
2022-11-05T01:08:45.490Z,101195.78
2022-11-05T01:11:34.065Z,101200.41
2022-11-05T01:14:09.849Z,101200.00
2022-11-05T01:16:37.599Z,101210.72
2022-11-05T01:19:07.077Z,101216.28
2022-11-05T01:21:34.145Z,101210.75
2022-11-05T01:24:01.972Z,101216.31
2022-11-05T01:26:28.620Z,101215.75
2022-11-05T01:28:57.414Z,101215.22
2022-11-05T01:31:24.303Z,101214.66
2022-11-05T01:33:51.112Z,101213.31
2022-11-05T01:36:18.761Z,101215.47
2022-11-05T01:38:45.442Z,101224.28
2022-11-05T01:41:12.292Z,101221.28
2022-11-05T01:44:05.216Z,101220.75
2022-11-05T01:46:36.582Z,101224.66
2022-11-05T01:49:26.517Z,101223.97
2022-11-05T01:51:53.581Z,101218.28
2022-11-05T01:54:27.063Z,101214.22
2022-11-05T01:56:59.433Z,101222.88
2022-11-05T01:59:34.128Z,101220.59
2022-11-05T02:02:02.564Z,101218.50
2022-11-05T02:04:38.728Z,101224.63
2022-11-05T02:07:07.510Z,101212.94
2022-11-05T02:09:44.002Z,101214.16
2022-11-05T02:12:11.817Z,101218.63
2022-11-05T02:14:38.583Z,101217.78
2022-11-05T02:17:11.128Z,101222.28
2022-11-05T02:19:59.467Z,101222.41
2022-11-05T02:22:36.731Z,101225.09
2022-11-05T02:25:28.320Z,101223.63
2022-11-05T02:28:30.068Z,101222.22
2022-11-05T02:31:20.171Z,101226.84
2022-11-05T02:34:02.974Z,101226.16
2022-11-05T02:36:51.329Z,101227.22
2022-11-05T02:39:24.566Z,101231.56
2022-11-05T02:42:11.990Z,101223.00
2022-11-05T02:44:59.735Z,101230.75
2022-11-05T02:48:00.618Z,101221.50
2022-11-05T02:51:05.639Z,101226.25
2022-11-05T02:53:53.417Z,101229.19
2022-11-05T02:56:25.820Z,101219.97
2022-11-05T02:58:52.628Z,101226.22
2022-11-05T03:01:19.323Z,101227.13
2022-11-05T03:03:50.379Z,101218.88
2022-11-05T03:06:28.462Z,101223.19
2022-11-05T03:09:14.702Z,101226.00
2022-11-05T03:12:10.606Z,101220.19
2022-11-05T03:15:07.746Z,101209.19
2022-11-05T03:17:49.522Z,101217.97
2022-11-05T03:20:21.951Z,101216.34
2022-11-05T03:22:55.235Z,101220.69
2022-11-05T03:25:24.345Z,101221.75
2022-11-05T03:27:57.614Z,101220.25
2022-11-05T03:30:25.906Z,101219.69
2022-11-05T03:33:01.839Z,101219.13
2022-11-05T03:35:46.521Z,101215.03
2022-11-05T03:38:21.651Z,101220.34
2022-11-05T03:40:53.341Z,101220.34
2022-11-05T03:43:22.145Z,101217.06
2022-11-05T03:46:03.302Z,101227.47
2022-11-05T03:48:39.304Z,101229.50
2022-11-05T03:51:20.988Z,101233.81
2022-11-05T03:53:58.275Z,101233.13
2022-11-05T03:56:55.014Z,101233.25
2022-11-05T03:59:29.276Z,101237.72
2022-11-05T04:01:57.042Z,101237.16
2022-11-05T04:04:37.277Z,101236.53
2022-11-05T04:07:22.365Z,101238.44
2022-11-05T04:10:15.282Z,101229.19
2022-11-05T04:13:01.020Z,101243.13
2022-11-05T04:15:36.321Z,101240.69
2022-11-05T04:18:04.532Z,101243.38
2022-11-05T04:20:56.276Z,101252.03
2022-11-05T04:23:43.647Z,101255.44
2022-11-05T04:26:16.352Z,101251.22
2022-11-05T04:29:05.242Z,101254.88
2022-11-05T04:31:41.275Z,101253.22
2022-11-05T04:34:08.079Z,101252.41
2022-11-05T04:36:34.883Z,101253.47
2022-11-05T04:39:08.257Z,101260.41
2022-11-05T04:41:34.790Z,101262.16
2022-11-05T04:44:01.476Z,101259.69
2022-11-05T04:46:34.286Z,101264.81
2022-11-05T04:49:00.911Z,101261.47
2022-11-05T04:51:27.408Z,101264.03
2022-11-05T04:54:01.305Z,101270.94
2022-11-05T04:56:27.886Z,101266.72
2022-11-05T04:58:54.467Z,101268.59
2022-11-05T05:01:30.421Z,101265.19
2022-11-05T05:04:17.259Z,101265.19
2022-11-05T05:06:50.276Z,101268.59
2022-11-05T05:09:16.862Z,101268.72
2022-11-05T05:11:45.447Z,101273.72
2022-11-05T05:14:19.273Z,101277.13
2022-11-05T05:16:45.952Z,101277.13
2022-11-05T05:19:12.964Z,101280.63
2022-11-05T05:21:47.261Z,101282.41
2022-11-05T05:24:19.216Z,101287.78
2022-11-05T05:26:55.325Z,101290.38
2022-11-05T05:29:21.875Z,101286.03
2022-11-05T05:31:48.553Z,101290.38
2022-11-05T05:34:21.298Z,101291.19
2022-11-05T05:36:47.872Z,101286.75
2022-11-05T05:39:14.570Z,101284.25
2022-11-05T05:41:48.286Z,101295.50
2022-11-05T05:44:14.906Z,101291.28
2022-11-05T05:46:48.261Z,101292.34
2022-11-05T05:49:14.819Z,101292.34
2022-11-05T05:51:41.493Z,101296.69
2022-11-05T05:54:15.286Z,101293.31
2022-11-05T05:56:45.930Z,101297.63
2022-11-05T05:59:12.558Z,101307.09
2022-11-05T06:01:46.413Z,101310.72
2022-11-05T06:04:33.283Z,101311.53
2022-11-05T06:07:14.329Z,101312.38
2022-11-05T06:09:40.904Z,101313.19
2022-11-05T06:12:07.619Z,101310.63
2022-11-05T06:14:41.331Z,101316.69
2022-11-05T06:17:08.071Z,101325.38
2022-11-05T06:19:36.612Z,101323.03
2022-11-05T06:22:09.319Z,101327.56
2022-11-05T06:24:35.905Z,101326.88
2022-11-05T06:27:02.389Z,101316.84
2022-11-05T06:29:35.283Z,101325.25
2022-11-05T06:32:01.887Z,101309.81
2022-11-05T06:34:28.555Z,101325.13
2022-11-05T06:37:01.284Z,101325.00
2022-11-05T06:39:27.951Z,101326.66
2022-11-05T06:42:18.074Z,101334.38
2022-11-05T06:44:47.562Z,101339.38
2022-11-05T06:47:20.305Z,101344.44
2022-11-05T06:49:47.140Z,101339.38
2022-11-05T06:52:15.282Z,101347.94
2022-11-05T06:54:49.282Z,101351.19
2022-11-05T06:57:15.855Z,101346.75
2022-11-05T06:59:42.351Z,101357.63
2022-11-05T07:02:19.331Z,101363.25
2022-11-05T07:05:11.459Z,101366.16
2022-11-05T07:07:45.355Z,101359.00
2022-11-05T07:10:16.377Z,101357.84
2022-11-05T07:12:43.267Z,101357.69
2022-11-05T07:15:18.278Z,101351.38
2022-11-05T07:17:44.805Z,101351.22
2022-11-05T07:20:12.630Z,101356.97
2022-11-05T07:22:46.270Z,101366.22
2022-11-05T07:25:12.885Z,101360.09
2022-11-05T07:27:40.249Z,101370.19
2022-11-05T07:30:15.348Z,101362.25
2022-11-05T07:32:42.366Z,101368.53
2022-11-05T07:35:09.559Z,101368.72
2022-11-05T07:37:52.351Z,101367.75
2022-11-05T07:40:19.781Z,101378.84
2022-11-05T07:42:49.520Z,101379.97
2022-11-05T07:45:29.352Z,101388.03
2022-11-05T07:48:05.266Z,101381.28
2022-11-05T07:50:43.310Z,101384.91
2022-11-05T07:53:12.627Z,101382.25
2022-11-05T07:55:50.300Z,101388.25
2022-11-05T07:58:17.044Z,101387.38
2022-11-05T08:00:43.709Z,101396.78
2022-11-05T08:03:22.582Z,101394.13
2022-11-05T08:06:02.449Z,101396.06
2022-11-05T08:08:35.305Z,101398.94
2022-11-05T08:11:09.850Z,101397.75
2022-11-05T08:13:43.302Z,101390.56
2022-11-05T08:16:10.799Z,101391.00
2022-11-05T08:18:37.373Z,101395.91
2022-11-05T08:21:12.393Z,101395.50
2022-11-05T08:23:39.409Z,101397.81
2022-11-05T08:26:06.066Z,101399.47
2022-11-05T08:28:39.412Z,101401.06
2022-11-05T08:31:05.961Z,101397.03
2022-11-05T08:33:33.175Z,101399.78
2022-11-05T08:36:10.511Z,101392.44
2022-11-05T08:38:37.326Z,101395.44
2022-11-05T08:41:04.762Z,101399.81
2022-11-05T08:43:38.435Z,101405.06
2022-11-05T08:46:05.175Z,101395.56
2022-11-05T08:48:31.830Z,101394.63
2022-11-05T08:51:07.385Z,101396.25
2022-11-05T08:53:33.876Z,101395.16
2022-11-05T08:56:00.628Z,101394.09
2022-11-05T08:58:34.422Z,101400.50
2022-11-05T09:01:05.380Z,101401.19
2022-11-05T09:03:32.553Z,101393.97
2022-11-05T09:06:05.442Z,101397.13
2022-11-05T09:08:32.013Z,101398.31
2022-11-05T09:10:58.595Z,101391.13
2022-11-05T09:13:32.426Z,101397.50
2022-11-05T09:16:00.598Z,101403.09
2022-11-05T09:18:27.254Z,101407.59
2022-11-05T09:21:00.419Z,101403.00
2022-11-05T09:23:26.927Z,101410.91
2022-11-05T09:25:53.495Z,101412.66
2022-11-05T09:28:29.398Z,101411.28
2022-11-05T09:30:56.059Z,101414.16
2022-11-05T09:33:25.474Z,101420.53
2022-11-05T09:36:00.470Z,101416.59
2022-11-05T09:38:27.118Z,101421.88
2022-11-05T09:41:08.321Z,101424.44
2022-11-05T09:43:50.545Z,101424.44
2022-11-05T09:46:52.283Z,101424.56
2022-11-05T09:49:30.557Z,101419.31
2022-11-05T09:52:05.336Z,101427.38
2022-11-05T09:54:33.214Z,101424.06
2022-11-05T09:57:03.068Z,101427.72
2022-11-05T09:59:44.478Z,101435.03
2022-11-05T10:02:31.149Z,101423.00
2022-11-05T10:05:10.211Z,101428.56
2022-11-05T10:08:02.508Z,101433.88
2022-11-05T10:10:48.322Z,101431.66
2022-11-05T10:13:30.108Z,101436.25
2022-11-05T10:16:22.329Z,101444.44
2022-11-05T10:18:55.315Z,101439.63
2022-11-05T10:21:44.164Z,101435.78
2022-11-05T10:24:29.417Z,101445.44
2022-11-05T10:26:57.624Z,101432.81
2022-11-05T10:29:39.324Z,101442.63
2022-11-05T10:32:07.557Z,101435.22
2022-11-05T10:34:38.086Z,101433.16
2022-11-05T10:37:11.304Z,101438.06
2022-11-05T10:39:39.509Z,101426.72
2022-11-05T10:42:31.446Z,101423.69
2022-11-05T10:45:04.520Z,101432.00
2022-11-05T10:48:01.412Z,101424.88
2022-11-05T10:50:29.838Z,101428.97
2022-11-05T10:53:21.365Z,101431.09
2022-11-05T10:55:50.759Z,101424.50
2022-11-05T10:58:17.278Z,101425.97
2022-11-05T11:00:57.502Z,101427.84
2022-11-05T11:03:47.460Z,101431.75
2022-11-05T11:06:44.383Z,101430.50
2022-11-05T11:09:27.670Z,101433.44
2022-11-05T11:12:06.377Z,101433.69
2022-11-05T11:14:35.087Z,101436.16
2022-11-05T11:17:35.336Z,101430.06
2022-11-05T11:20:22.706Z,101429.97
2022-11-05T11:23:20.303Z,101427.91
2022-11-05T11:25:57.930Z,101431.84
2022-11-05T11:28:40.335Z,101427.16
2022-11-05T11:31:14.248Z,101424.41
2022-11-05T11:33:51.354Z,101433.66
2022-11-05T11:36:24.321Z,101431.06
2022-11-05T11:38:51.054Z,101440.63
2022-11-05T11:41:33.505Z,101438.56
2022-11-05T11:44:06.649Z,101439.22
2022-11-05T11:46:35.260Z,101438.25
2022-11-05T11:49:02.485Z,101436.31
2022-11-05T11:51:40.787Z,101438.59
2022-11-05T11:54:19.386Z,101443.66
2022-11-05T11:56:48.056Z,101434.72
2022-11-05T11:59:46.862Z,101434.41
2022-11-05T12:02:36.418Z,101430.56
2022-11-05T12:05:11.581Z,101423.91
2022-11-05T12:07:53.812Z,101415.97
2022-11-05T12:10:28.343Z,101414.53
2022-11-05T12:13:18.960Z,101423.66
2022-11-05T12:16:08.454Z,101419.78
2022-11-05T12:18:59.645Z,101420.44
2022-11-05T12:21:52.506Z,101426.28
2022-11-05T12:25:06.265Z,101429.06
2022-11-05T12:27:41.682Z,101427.28
2022-11-05T12:30:14.074Z,101429.72
2022-11-05T12:33:15.480Z,101426.97
2022-11-05T12:35:57.462Z,101425.16
2022-11-05T12:38:44.692Z,101414.75
2022-11-05T12:41:20.915Z,101421.59
2022-11-05T12:44:16.268Z,101421.59
2022-11-05T12:47:09.008Z,101419.97
2022-11-05T12:49:46.853Z,101420.94
2022-11-05T12:52:25.359Z,101412.50
2022-11-05T12:55:08.173Z,101422.72
2022-11-05T12:57:40.281Z,101419.19
2022-11-05T13:00:27.984Z,101418.34
2022-11-05T13:03:07.394Z,101421.09
2022-11-05T13:05:46.159Z,101417.84
2022-11-05T13:08:22.905Z,101424.81
2022-11-05T13:10:55.731Z,101431.00
2022-11-05T13:13:31.655Z,101424.03
2022-11-05T13:16:31.785Z,101416.88
2022-11-05T13:19:04.618Z,101415.25
2022-11-05T13:21:31.916Z,101409.91
2022-11-05T13:24:11.087Z,101414.28
2022-11-05T13:27:01.129Z,101411.81
2022-11-05T13:29:32.293Z,101403.06
2022-11-05T13:32:11.187Z,101404.72
2022-11-05T13:34:37.979Z,101401.13
2022-11-05T13:37:26.212Z,101404.53
2022-11-05T13:39:56.954Z,101409.75
2022-11-05T13:42:44.456Z,101406.31
2022-11-05T13:45:36.151Z,101405.03
2022-11-05T13:48:21.671Z,101402.41
2022-11-05T13:50:54.213Z,101407.47
2022-11-05T13:53:41.098Z,101398.22
2022-11-05T13:56:32.836Z,101393.19
2022-11-05T13:59:37.379Z,101402.75
2022-11-05T14:02:14.390Z,101396.91
2022-11-05T14:04:47.082Z,101383.41
2022-11-05T14:07:27.216Z,101385.34
2022-11-05T14:09:59.539Z,101387.25
2022-11-05T14:12:28.331Z,101388.56
2022-11-05T14:15:02.217Z,101390.50
2022-11-05T14:17:53.229Z,101382.84
2022-11-05T14:20:24.958Z,101374.72
2022-11-05T14:22:51.993Z,101366.59
2022-11-05T14:25:18.505Z,101360.06
2022-11-05T14:27:48.345Z,101362.19
2022-11-05T14:30:46.943Z,101361.81
2022-11-05T14:33:32.113Z,101367.50
2022-11-05T14:36:20.665Z,101367.00
2022-11-05T14:38:54.609Z,101361.28
2022-11-05T14:41:21.841Z,101363.25
2022-11-05T14:44:05.066Z,101357.53
2022-11-05T14:46:46.652Z,101361.41
2022-11-05T14:49:21.497Z,101357.34
2022-11-05T14:51:51.256Z,101368.19
2022-11-05T14:54:20.794Z,101364.13
2022-11-05T14:56:53.221Z,101361.84
2022-11-05T14:59:25.610Z,101366.69
2022-11-05T15:01:56.703Z,101358.25
2022-11-05T15:04:33.259Z,101358.38
2022-11-05T15:07:02.862Z,101359.50
2022-11-05T15:09:49.007Z,101363.91
2022-11-05T15:12:39.636Z,101364.19
2022-11-05T15:15:31.782Z,101365.16
2022-11-05T15:18:06.584Z,101368.75
2022-11-05T15:20:47.321Z,101363.84
2022-11-05T15:23:20.774Z,101371.78
2022-11-05T15:25:56.406Z,101366.78
2022-11-05T15:28:38.064Z,101372.91
2022-11-05T15:31:20.065Z,101362.16
2022-11-05T15:33:50.490Z,101361.69
2022-11-05T15:36:25.205Z,101361.16
2022-11-05T15:39:15.101Z,101360.66
2022-11-05T15:41:38.564Z,101365.31
2022-11-05T15:44:05.226Z,101362.22
2022-11-05T15:46:31.807Z,101361.56
2022-11-05T15:49:04.860Z,101362.69
2022-11-05T15:51:31.365Z,101368.16
2022-11-05T15:56:55.887Z,101363.59
2022-11-05T15:59:25.831Z,101368.25
2022-11-05T16:02:03.286Z,101376.19
2022-11-05T16:04:33.684Z,101375.66
2022-11-05T16:07:11.235Z,101384.59
2022-11-05T16:09:43.923Z,101366.44
2022-11-05T16:12:19.751Z,101368.22
2022-11-05T16:15:10.603Z,101366.72
2022-11-05T16:17:40.169Z,101367.53
2022-11-05T16:20:21.931Z,101370.28
2022-11-05T16:22:53.098Z,101370.13
2022-11-05T16:25:38.883Z,101371.91
2022-11-05T16:28:20.306Z,101372.84
2022-11-05T16:30:58.765Z,101373.97
2022-11-05T16:33:31.316Z,101367.19
2022-11-05T16:35:58.088Z,101359.53
2022-11-05T16:38:24.929Z,101363.25
2022-11-05T16:40:51.707Z,101365.16
2022-11-05T16:43:21.564Z,101365.31
2022-11-05T16:45:52.641Z,101369.69
2022-11-05T16:48:21.202Z,101364.50
2022-11-05T16:50:47.753Z,101369.03
2022-11-05T16:53:15.802Z,101376.78
2022-11-05T16:55:44.943Z,101366.44
2022-11-05T16:58:20.689Z,101363.84
2022-11-05T17:00:49.226Z,101363.00
2022-11-05T17:03:16.054Z,101361.41
2022-11-05T17:05:43.341Z,101360.41
2022-11-05T17:08:10.201Z,101356.06
2022-11-05T17:10:37.147Z,101354.44
2022-11-05T17:13:03.805Z,101350.06
2022-11-05T17:15:35.597Z,101342.44
2022-11-05T17:18:04.226Z,101344.88
2022-11-05T17:20:36.545Z,101339.84
2022-11-05T17:23:16.616Z,101344.19
2022-11-05T17:25:45.839Z,101338.16
2022-11-05T17:28:13.538Z,101339.03
2022-11-05T17:30:41.896Z,101337.25
2022-11-05T17:33:11.347Z,101339.16
2022-11-05T17:35:39.791Z,101334.91
2022-11-05T17:38:06.391Z,101339.16
2022-11-05T17:40:34.888Z,101352.09
2022-11-05T17:43:03.457Z,101342.69
2022-11-05T17:45:30.126Z,101353.06
2022-11-05T17:47:56.946Z,101348.69
2022-11-05T17:50:24.387Z,101345.44
2022-11-05T17:52:51.323Z,101346.41
2022-11-05T17:55:18.104Z,101349.81
2022-11-05T17:57:49.143Z,101343.00
2022-11-05T18:00:21.631Z,101345.44
2022-11-05T18:02:49.721Z,101348.84
2022-11-05T18:05:20.735Z,101349.69
2022-11-05T18:07:47.965Z,101349.53
2022-11-05T18:10:15.727Z,101345.16
2022-11-05T18:12:43.191Z,101339.03
2022-11-05T18:15:10.469Z,101347.63
2022-11-05T18:17:37.220Z,101333.97
2022-11-05T18:20:11.667Z,101332.19
2022-11-05T18:22:42.335Z,101337.91
2022-11-05T18:25:11.456Z,101335.47
2022-11-05T18:27:38.169Z,101339.84
2022-11-05T18:30:05.444Z,101338.06
2022-11-05T18:32:33.178Z,101339.03
2022-11-05T18:34:59.818Z,101341.63
2022-11-05T18:37:26.626Z,101329.72
2022-11-05T18:39:53.955Z,101327.00
2022-11-05T18:42:21.254Z,101332.31
2022-11-05T18:44:48.322Z,101328.78
2022-11-05T18:47:15.646Z,101332.19
2022-11-05T18:49:42.349Z,101339.97
2022-11-05T18:52:09.067Z,101340.25
2022-11-05T18:54:35.650Z,101340.91
2022-11-05T18:57:02.487Z,101337.38
2022-11-05T18:59:39.260Z,101332.19
2022-11-05T19:02:08.584Z,101325.19
2022-11-05T19:04:36.746Z,101321.00
2022-11-05T19:07:05.354Z,101311.31
2022-11-05T19:09:35.195Z,101315.56
2022-11-05T19:12:03.095Z,101305.97
2022-11-05T19:14:30.307Z,101306.81
2022-11-05T19:17:01.252Z,101305.97
2022-11-05T19:19:28.289Z,101301.63
2022-11-05T19:21:54.903Z,101305.19
2022-11-05T19:24:21.507Z,101308.56
2022-11-05T19:26:48.692Z,101313.75
2022-11-05T19:29:17.309Z,101317.16
2022-11-05T19:31:44.388Z,101322.22
2022-11-05T19:34:11.459Z,101315.25
2022-11-05T19:36:38.139Z,101315.91
2022-11-05T19:39:08.795Z,101314.13
2022-11-05T19:41:35.521Z,101318.19
2022-11-05T19:44:02.203Z,101324.38
2022-11-05T19:46:30.053Z,101323.38
2022-11-05T19:48:56.865Z,101316.44
2022-11-05T19:51:26.008Z,101314.50
2022-11-05T19:53:55.121Z,101307.53
2022-11-05T19:56:22.788Z,101309.97
2022-11-05T19:58:50.040Z,101304.63
2022-11-05T20:01:18.227Z,101304.63
2022-11-05T20:03:46.162Z,101308.84
2022-11-05T20:06:16.295Z,101306.25
2022-11-05T20:09:07.120Z,101301.91
2022-11-05T20:11:29.959Z,101307.22
2022-11-05T20:13:57.232Z,101316.63
2022-11-05T20:16:29.612Z,101312.28
2022-11-05T20:18:57.494Z,101308.84
2022-11-05T20:21:24.142Z,101303.00
2022-11-05T20:23:50.803Z,101302.19
2022-11-05T20:26:17.443Z,101302.34
2022-11-05T20:28:44.395Z,101292.94
2022-11-05T20:31:14.377Z,101299.88
2022-11-05T20:33:41.733Z,101303.47
2022-11-05T20:36:15.150Z,101309.31
2022-11-05T20:38:42.087Z,101299.88
2022-11-05T20:41:10.569Z,101287.75
2022-11-05T20:43:41.048Z,101289.38
2022-11-05T20:46:12.118Z,101293.59
2022-11-05T20:48:38.722Z,101298.78
2022-11-05T20:51:09.041Z,101300.56
2022-11-05T20:53:36.388Z,101315.16
2022-11-05T20:56:07.802Z,101313.38
2022-11-05T20:58:36.162Z,101311.44
2022-11-05T21:01:03.817Z,101308.03
2022-11-05T21:03:30.487Z,101305.59
2022-11-05T21:05:59.986Z,101301.25
2022-11-05T21:08:28.268Z,101300.41
2022-11-05T21:10:56.463Z,101299.59
2022-11-05T21:13:23.669Z,101307.38
2022-11-05T21:15:56.003Z,101294.56
2022-11-05T21:18:25.260Z,101304.13
2022-11-05T21:20:52.050Z,101306.72
2022-11-05T21:23:19.051Z,101299.09
2022-11-05T21:25:47.322Z,101288.84
2022-11-05T21:28:15.401Z,101293.25
2022-11-05T21:30:45.795Z,101293.25
2022-11-05T21:33:14.275Z,101285.47
2022-11-05T21:35:46.565Z,101285.59
2022-11-05T21:38:15.955Z,101297.63
2022-11-05T21:40:43.314Z,101297.47
2022-11-05T21:43:10.429Z,101299.22
2022-11-05T21:45:41.704Z,101293.09
2022-11-05T21:48:09.361Z,101281.91
2022-11-05T21:50:57.338Z,101284.34
2022-11-05T21:53:42.749Z,101289.50
2022-11-05T21:56:47.186Z,101279.97
2022-11-05T21:59:38.447Z,101282.56
2022-11-05T22:02:06.546Z,101290.34
2022-11-05T22:04:44.831Z,101287.09
2022-11-05T22:07:14.128Z,101287.25
2022-11-05T22:09:40.780Z,101278.66
2022-11-05T22:12:08.132Z,101282.88
2022-11-05T22:14:34.974Z,101283.84
2022-11-05T22:17:02.033Z,101273.47
2022-11-05T22:19:29.167Z,101270.22
2022-11-05T22:21:55.688Z,101272.81
2022-11-05T22:24:22.948Z,101264.22
2022-11-05T22:26:49.519Z,101263.53
2022-11-05T22:29:16.651Z,101263.53
2022-11-05T22:31:43.682Z,101249.75
2022-11-05T22:34:11.626Z,101249.09
2022-11-05T22:36:38.779Z,101251.69
2022-11-05T22:39:05.946Z,101256.88
2022-11-05T22:41:33.051Z,101257.72
2022-11-05T22:43:59.840Z,101255.13
2022-11-05T22:46:27.338Z,101249.09
2022-11-05T22:48:54.146Z,101243.91
2022-11-05T22:51:28.702Z,101238.75
2022-11-05T22:53:55.824Z,101240.50
2022-11-05T22:56:26.724Z,101240.50
2022-11-05T22:58:53.612Z,101244.75
2022-11-05T23:01:21.730Z,101230.13
2022-11-05T23:03:50.262Z,101234.47
2022-11-05T23:06:41.142Z,101236.16
2022-11-05T23:09:41.466Z,101232.72
2022-11-05T23:12:19.291Z,101229.28
2022-11-05T23:14:46.050Z,101233.03
2022-11-05T23:17:30.960Z,101229.91
2022-11-05T23:20:29.438Z,101220.53
2022-11-05T23:23:15.883Z,101217.69
2022-11-05T23:25:43.142Z,101214.59
2022-11-05T23:28:11.457Z,101203.72
2022-11-05T23:31:01.738Z,101212.09
2022-11-05T23:33:29.606Z,101204.78
2022-11-05T23:36:14.731Z,101212.84
2022-11-05T23:38:41.466Z,101208.94
2022-11-05T23:41:26.934Z,101206.63
2022-11-05T23:44:12.152Z,101205.03
2022-11-05T23:46:57.282Z,101204.22
2022-11-05T23:49:23.861Z,101211.97
2022-11-05T23:51:50.535Z,101218.28
2022-11-05T23:54:17.221Z,101207.91
2022-11-05T23:56:43.895Z,101208.06
2022-11-05T23:59:10.498Z,101209.03
